sensor_id;sensor_type;location;lat;lon;timestamp;P1;durP1;ratioP1;P2;durP2;ratioP2
45970;SDS011;31681;48.982;8.394;2023-04-21T00:02:02;24.87;;;16.03;;
45970;SDS011;31681;48.982;8.394;2023-04-21T00:04:27;24.60;;;15.67;;
45970;SDS011;31681;48.982;8.394;2023-04-21T00:06:53;22.03;;;14.30;;
45970;SDS011;31681;48.982;8.394;2023-04-21T00:09:18;23.43;;;15.17;;
45970;SDS011;31681;48.982;8.394;2023-04-21T00:11:44;23.37;;;15.43;;
45970;SDS011;31681;48.982;8.394;2023-04-21T00:14:09;25.13;;;14.90;;
45970;SDS011;31681;48.982;8.394;2023-04-21T00:16:34;22.37;;;15.13;;
45970;SDS011;31681;48.982;8.394;2023-04-21T00:19:00;25.17;;;16.40;;
45970;SDS011;31681;48.982;8.394;2023-04-21T00:21:26;23.07;;;15.27;;
45970;SDS011;31681;48.982;8.394;2023-04-21T00:23:51;24.70;;;15.13;;
45970;SDS011;31681;48.982;8.394;2023-04-21T00:26:17;27.80;;;15.83;;
45970;SDS011;31681;48.982;8.394;2023-04-21T00:28:43;24.90;;;14.77;;
45970;SDS011;31681;48.982;8.394;2023-04-21T00:31:09;25.70;;;15.60;;
45970;SDS011;31681;48.982;8.394;2023-04-21T00:33:34;24.70;;;15.73;;
45970;SDS011;31681;48.982;8.394;2023-04-21T00:36:00;23.43;;;14.37;;
45970;SDS011;31681;48.982;8.394;2023-04-21T00:38:26;23.37;;;15.20;;
45970;SDS011;31681;48.982;8.394;2023-04-21T00:40:51;23.17;;;14.30;;
45970;SDS011;31681;48.982;8.394;2023-04-21T00:43:16;25.30;;;16.47;;
45970;SDS011;31681;48.982;8.394;2023-04-21T00:45:44;22.47;;;15.23;;
45970;SDS011;31681;48.982;8.394;2023-04-21T00:48:09;24.40;;;14.60;;
45970;SDS011;31681;48.982;8.394;2023-04-21T00:50:37;20.83;;;14.33;;
45970;SDS011;31681;48.982;8.394;2023-04-21T00:53:04;21.97;;;14.13;;
45970;SDS011;31681;48.982;8.394;2023-04-21T00:55:30;22.63;;;14.27;;
45970;SDS011;31681;48.982;8.394;2023-04-21T00:57:55;25.40;;;15.80;;
45970;SDS011;31681;48.982;8.394;2023-04-21T01:00:26;22.87;;;14.90;;
45970;SDS011;31681;48.982;8.394;2023-04-21T01:02:51;22.63;;;14.43;;
45970;SDS011;31681;48.982;8.394;2023-04-21T01:05:17;25.00;;;14.87;;
45970;SDS011;31681;48.982;8.394;2023-04-21T01:07:42;24.53;;;15.73;;
45970;SDS011;31681;48.982;8.394;2023-04-21T01:10:08;28.60;;;16.27;;
45970;SDS011;31681;48.982;8.394;2023-04-21T01:12:40;27.70;;;16.20;;
45970;SDS011;31681;48.982;8.394;2023-04-21T01:15:06;26.50;;;16.73;;
45970;SDS011;31681;48.982;8.394;2023-04-21T01:17:31;28.93;;;16.83;;
45970;SDS011;31681;48.982;8.394;2023-04-21T01:19:57;27.77;;;17.33;;
45970;SDS011;31681;48.982;8.394;2023-04-21T01:22:25;29.83;;;17.47;;
45970;SDS011;31681;48.982;8.394;2023-04-21T01:24:50;30.90;;;17.77;;
45970;SDS011;31681;48.982;8.394;2023-04-21T01:27:16;30.57;;;17.77;;
45970;SDS011;31681;48.982;8.394;2023-04-21T01:29:49;32.10;;;18.00;;
45970;SDS011;31681;48.982;8.394;2023-04-21T01:32:16;32.50;;;19.23;;
45970;SDS011;31681;48.982;8.394;2023-04-21T01:34:42;28.67;;;17.90;;
45970;SDS011;31681;48.982;8.394;2023-04-21T01:37:09;29.57;;;19.57;;
45970;SDS011;31681;48.982;8.394;2023-04-21T01:39:38;30.60;;;18.97;;
45970;SDS011;31681;48.982;8.394;2023-04-21T01:42:04;28.73;;;17.40;;
45970;SDS011;31681;48.982;8.394;2023-04-21T01:44:29;27.77;;;17.47;;
45970;SDS011;31681;48.982;8.394;2023-04-21T01:46:56;28.37;;;17.13;;
45970;SDS011;31681;48.982;8.394;2023-04-21T01:49:22;26.07;;;16.80;;
45970;SDS011;31681;48.982;8.394;2023-04-21T01:51:47;28.77;;;17.23;;
45970;SDS011;31681;48.982;8.394;2023-04-21T01:54:13;28.60;;;16.37;;
45970;SDS011;31681;48.982;8.394;2023-04-21T01:56:38;24.90;;;15.50;;
45970;SDS011;31681;48.982;8.394;2023-04-21T01:59:04;24.07;;;15.67;;
45970;SDS011;31681;48.982;8.394;2023-04-21T02:01:29;25.43;;;15.40;;
45970;SDS011;31681;48.982;8.394;2023-04-21T02:03:55;26.50;;;16.73;;
45970;SDS011;31681;48.982;8.394;2023-04-21T02:06:20;27.87;;;15.77;;
45970;SDS011;31681;48.982;8.394;2023-04-21T02:08:45;27.10;;;15.93;;
45970;SDS011;31681;48.982;8.394;2023-04-21T02:11:11;26.50;;;16.00;;
45970;SDS011;31681;48.982;8.394;2023-04-21T02:13:38;25.13;;;14.53;;
45970;SDS011;31681;48.982;8.394;2023-04-21T02:16:04;25.90;;;15.13;;
45970;SDS011;31681;48.982;8.394;2023-04-21T02:18:30;24.53;;;14.73;;
45970;SDS011;31681;48.982;8.394;2023-04-21T02:20:55;21.60;;;13.67;;
45970;SDS011;31681;48.982;8.394;2023-04-21T02:23:20;21.53;;;13.47;;
45970;SDS011;31681;48.982;8.394;2023-04-21T02:25:46;23.23;;;13.83;;
45970;SDS011;31681;48.982;8.394;2023-04-21T02:28:11;22.23;;;13.90;;
45970;SDS011;31681;48.982;8.394;2023-04-21T02:30:36;22.77;;;14.17;;
45970;SDS011;31681;48.982;8.394;2023-04-21T02:33:02;24.17;;;13.90;;
45970;SDS011;31681;48.982;8.394;2023-04-21T02:35:27;23.63;;;14.70;;
45970;SDS011;31681;48.982;8.394;2023-04-21T02:37:53;23.00;;;14.00;;
45970;SDS011;31681;48.982;8.394;2023-04-21T02:40:21;25.07;;;13.73;;
45970;SDS011;31681;48.982;8.394;2023-04-21T02:42:46;22.57;;;13.80;;
45970;SDS011;31681;48.982;8.394;2023-04-21T02:45:12;21.23;;;13.63;;
45970;SDS011;31681;48.982;8.394;2023-04-21T02:47:37;23.27;;;14.20;;
45970;SDS011;31681;48.982;8.394;2023-04-21T02:50:03;24.67;;;14.10;;
45970;SDS011;31681;48.982;8.394;2023-04-21T02:52:28;21.43;;;12.80;;
45970;SDS011;31681;48.982;8.394;2023-04-21T02:54:54;21.63;;;13.57;;
45970;SDS011;31681;48.982;8.394;2023-04-21T02:57:19;19.73;;;12.60;;
45970;SDS011;31681;48.982;8.394;2023-04-21T02:59:45;24.33;;;14.00;;
45970;SDS011;31681;48.982;8.394;2023-04-21T03:02:10;22.43;;;13.30;;
45970;SDS011;31681;48.982;8.394;2023-04-21T03:04:36;21.67;;;13.53;;
45970;SDS011;31681;48.982;8.394;2023-04-21T03:07:02;23.60;;;14.23;;
45970;SDS011;31681;48.982;8.394;2023-04-21T03:09:28;22.00;;;13.93;;
45970;SDS011;31681;48.982;8.394;2023-04-21T03:11:53;23.97;;;14.77;;
45970;SDS011;31681;48.982;8.394;2023-04-21T03:14:18;24.43;;;14.73;;
45970;SDS011;31681;48.982;8.394;2023-04-21T03:16:44;23.07;;;14.13;;
45970;SDS011;31681;48.982;8.394;2023-04-21T03:19:10;26.70;;;14.53;;
45970;SDS011;31681;48.982;8.394;2023-04-21T03:21:36;20.33;;;13.07;;
45970;SDS011;31681;48.982;8.394;2023-04-21T03:24:03;24.17;;;14.93;;
45970;SDS011;31681;48.982;8.394;2023-04-21T03:26:28;22.53;;;13.47;;
45970;SDS011;31681;48.982;8.394;2023-04-21T03:28:55;22.67;;;12.70;;
45970;SDS011;31681;48.982;8.394;2023-04-21T03:31:20;22.13;;;13.13;;
45970;SDS011;31681;48.982;8.394;2023-04-21T03:33:46;22.17;;;13.43;;
45970;SDS011;31681;48.982;8.394;2023-04-21T03:36:11;23.73;;;14.03;;
45970;SDS011;31681;48.982;8.394;2023-04-21T03:38:37;22.60;;;13.33;;
45970;SDS011;31681;48.982;8.394;2023-04-21T03:41:03;25.60;;;15.57;;
45970;SDS011;31681;48.982;8.394;2023-04-21T03:43:28;23.83;;;14.23;;
45970;SDS011;31681;48.982;8.394;2023-04-21T03:45:54;23.73;;;13.67;;
45970;SDS011;31681;48.982;8.394;2023-04-21T03:48:20;21.97;;;13.20;;
45970;SDS011;31681;48.982;8.394;2023-04-21T03:50:45;23.43;;;13.37;;
45970;SDS011;31681;48.982;8.394;2023-04-21T03:53:11;22.83;;;12.70;;
45970;SDS011;31681;48.982;8.394;2023-04-21T03:55:37;23.17;;;13.10;;
45970;SDS011;31681;48.982;8.394;2023-04-21T03:58:02;22.27;;;13.13;;
45970;SDS011;31681;48.982;8.394;2023-04-21T04:00:28;25.90;;;14.67;;
45970;SDS011;31681;48.982;8.394;2023-04-21T04:02:53;25.10;;;13.87;;
45970;SDS011;31681;48.982;8.394;2023-04-21T04:05:18;24.13;;;13.23;;
45970;SDS011;31681;48.982;8.394;2023-04-21T04:07:43;23.10;;;13.07;;
45970;SDS011;31681;48.982;8.394;2023-04-21T04:10:09;21.80;;;13.40;;
45970;SDS011;31681;48.982;8.394;2023-04-21T04:12:35;22.43;;;13.50;;
45970;SDS011;31681;48.982;8.394;2023-04-21T04:15:01;21.30;;;12.93;;
45970;SDS011;31681;48.982;8.394;2023-04-21T04:17:26;26.27;;;14.17;;
45970;SDS011;31681;48.982;8.394;2023-04-21T04:19:52;23.23;;;12.93;;
45970;SDS011;31681;48.982;8.394;2023-04-21T04:22:17;21.00;;;12.67;;
45970;SDS011;31681;48.982;8.394;2023-04-21T04:24:43;24.10;;;13.23;;
45970;SDS011;31681;48.982;8.394;2023-04-21T04:27:09;20.97;;;12.13;;
45970;SDS011;31681;48.982;8.394;2023-04-21T04:29:34;20.90;;;12.73;;
45970;SDS011;31681;48.982;8.394;2023-04-21T04:32:00;20.70;;;12.73;;
45970;SDS011;31681;48.982;8.394;2023-04-21T04:34:27;25.80;;;13.53;;
45970;SDS011;31681;48.982;8.394;2023-04-21T04:36:52;21.53;;;12.47;;
45970;SDS011;31681;48.982;8.394;2023-04-21T04:39:18;21.83;;;12.80;;
45970;SDS011;31681;48.982;8.394;2023-04-21T04:41:43;24.57;;;14.00;;
45970;SDS011;31681;48.982;8.394;2023-04-21T04:44:09;20.07;;;12.27;;
45970;SDS011;31681;48.982;8.394;2023-04-21T04:46:35;21.87;;;12.30;;
45970;SDS011;31681;48.982;8.394;2023-04-21T04:49:00;19.23;;;12.20;;
45970;SDS011;31681;48.982;8.394;2023-04-21T04:51:26;21.03;;;11.23;;
45970;SDS011;31681;48.982;8.394;2023-04-21T04:53:51;20.50;;;12.13;;
45970;SDS011;31681;48.982;8.394;2023-04-21T04:56:16;20.03;;;12.57;;
45970;SDS011;31681;48.982;8.394;2023-04-21T04:58:42;22.43;;;12.50;;
45970;SDS011;31681;48.982;8.394;2023-04-21T05:01:11;26.73;;;13.83;;
45970;SDS011;31681;48.982;8.394;2023-04-21T05:03:37;20.97;;;12.27;;
45970;SDS011;31681;48.982;8.394;2023-04-21T05:06:02;25.20;;;12.80;;
45970;SDS011;31681;48.982;8.394;2023-04-21T05:08:27;21.53;;;12.07;;
45970;SDS011;31681;48.982;8.394;2023-04-21T05:10:53;21.40;;;12.40;;
45970;SDS011;31681;48.982;8.394;2023-04-21T05:13:18;22.77;;;13.67;;
45970;SDS011;31681;48.982;8.394;2023-04-21T05:15:43;23.50;;;12.77;;
45970;SDS011;31681;48.982;8.394;2023-04-21T05:18:09;21.83;;;12.63;;
45970;SDS011;31681;48.982;8.394;2023-04-21T05:20:34;23.33;;;13.10;;
45970;SDS011;31681;48.982;8.394;2023-04-21T05:22:59;23.43;;;12.83;;
45970;SDS011;31681;48.982;8.394;2023-04-21T05:25:24;20.77;;;12.93;;
45970;SDS011;31681;48.982;8.394;2023-04-21T05:27:50;26.60;;;13.33;;
45970;SDS011;31681;48.982;8.394;2023-04-21T05:30:15;24.77;;;13.80;;
45970;SDS011;31681;48.982;8.394;2023-04-21T05:32:41;21.93;;;12.40;;
45970;SDS011;31681;48.982;8.394;2023-04-21T05:35:06;21.00;;;12.17;;
45970;SDS011;31681;48.982;8.394;2023-04-21T05:37:31;22.63;;;12.77;;
45970;SDS011;31681;48.982;8.394;2023-04-21T05:39:57;21.00;;;13.13;;
45970;SDS011;31681;48.982;8.394;2023-04-21T05:42:22;25.60;;;13.93;;
45970;SDS011;31681;48.982;8.394;2023-04-21T05:44:47;25.10;;;14.60;;
45970;SDS011;31681;48.982;8.394;2023-04-21T05:47:13;23.13;;;13.70;;
45970;SDS011;31681;48.982;8.394;2023-04-21T05:49:39;21.23;;;13.17;;
45970;SDS011;31681;48.982;8.394;2023-04-21T05:52:07;21.50;;;12.87;;
45970;SDS011;31681;48.982;8.394;2023-04-21T05:54:33;26.60;;;13.70;;
45970;SDS011;31681;48.982;8.394;2023-04-21T05:56:58;26.60;;;14.20;;
45970;SDS011;31681;48.982;8.394;2023-04-21T05:59:23;20.37;;;12.57;;
45970;SDS011;31681;48.982;8.394;2023-04-21T06:01:50;23.03;;;12.37;;
45970;SDS011;31681;48.982;8.394;2023-04-21T06:04:15;22.97;;;12.73;;
45970;SDS011;31681;48.982;8.394;2023-04-21T06:06:41;23.67;;;12.03;;
45970;SDS011;31681;48.982;8.394;2023-04-21T06:09:06;20.67;;;12.60;;
45970;SDS011;31681;48.982;8.394;2023-04-21T06:11:32;21.43;;;12.63;;
45970;SDS011;31681;48.982;8.394;2023-04-21T06:13:57;20.87;;;12.67;;
45970;SDS011;31681;48.982;8.394;2023-04-21T06:16:24;20.10;;;12.00;;
45970;SDS011;31681;48.982;8.394;2023-04-21T06:18:49;22.03;;;12.70;;
45970;SDS011;31681;48.982;8.394;2023-04-21T06:21:14;19.53;;;12.83;;
45970;SDS011;31681;48.982;8.394;2023-04-21T06:23:40;21.07;;;11.23;;
45970;SDS011;31681;48.982;8.394;2023-04-21T06:26:06;19.77;;;11.97;;
45970;SDS011;31681;48.982;8.394;2023-04-21T06:28:32;22.90;;;12.50;;
45970;SDS011;31681;48.982;8.394;2023-04-21T06:30:58;21.57;;;11.87;;
45970;SDS011;31681;48.982;8.394;2023-04-21T06:33:23;19.23;;;11.27;;
45970;SDS011;31681;48.982;8.394;2023-04-21T06:35:49;24.67;;;12.23;;
45970;SDS011;31681;48.982;8.394;2023-04-21T06:38:14;16.77;;;10.93;;
45970;SDS011;31681;48.982;8.394;2023-04-21T06:40:40;17.67;;;11.57;;
45970;SDS011;31681;48.982;8.394;2023-04-21T06:43:05;19.20;;;11.43;;
45970;SDS011;31681;48.982;8.394;2023-04-21T06:45:30;19.73;;;12.10;;
45970;SDS011;31681;48.982;8.394;2023-04-21T06:47:56;18.60;;;10.63;;
45970;SDS011;31681;48.982;8.394;2023-04-21T06:50:21;15.50;;;10.07;;
45970;SDS011;31681;48.982;8.394;2023-04-21T06:52:46;15.57;;;10.20;;
45970;SDS011;31681;48.982;8.394;2023-04-21T06:55:12;13.53;;;9.23;;
45970;SDS011;31681;48.982;8.394;2023-04-21T06:57:37;13.77;;;9.17;;
45970;SDS011;31681;48.982;8.394;2023-04-21T07:00:03;15.37;;;10.07;;
45970;SDS011;31681;48.982;8.394;2023-04-21T07:02:29;15.93;;;9.50;;
45970;SDS011;31681;48.982;8.394;2023-04-21T07:04:55;14.30;;;9.53;;
45970;SDS011;31681;48.982;8.394;2023-04-21T07:07:20;15.37;;;9.80;;
45970;SDS011;31681;48.982;8.394;2023-04-21T07:09:46;17.13;;;10.73;;
45970;SDS011;31681;48.982;8.394;2023-04-21T07:12:12;14.23;;;9.53;;
45970;SDS011;31681;48.982;8.394;2023-04-21T07:14:37;15.20;;;10.23;;
45970;SDS011;31681;48.982;8.394;2023-04-21T07:17:03;14.93;;;9.83;;
45970;SDS011;31681;48.982;8.394;2023-04-21T07:19:28;12.03;;;8.90;;
45970;SDS011;31681;48.982;8.394;2023-04-21T07:21:53;14.93;;;9.47;;
45970;SDS011;31681;48.982;8.394;2023-04-21T07:24:19;11.90;;;7.87;;
45970;SDS011;31681;48.982;8.394;2023-04-21T07:26:44;12.33;;;7.93;;
45970;SDS011;31681;48.982;8.394;2023-04-21T07:29:10;10.77;;;7.87;;
45970;SDS011;31681;48.982;8.394;2023-04-21T07:31:35;10.37;;;8.00;;
45970;SDS011;31681;48.982;8.394;2023-04-21T07:34:00;10.37;;;7.00;;
45970;SDS011;31681;48.982;8.394;2023-04-21T07:36:26;11.17;;;7.13;;
45970;SDS011;31681;48.982;8.394;2023-04-21T07:38:52;8.93;;;7.00;;
45970;SDS011;31681;48.982;8.394;2023-04-21T07:41:17;10.30;;;5.57;;
45970;SDS011;31681;48.982;8.394;2023-04-21T07:43:43;8.10;;;5.50;;
45970;SDS011;31681;48.982;8.394;2023-04-21T07:46:09;29.98;;;8.65;;
45970;SDS011;31681;48.982;8.394;2023-04-21T07:48:34;8.95;;;5.40;;
45970;SDS011;31681;48.982;8.394;2023-04-21T07:51:00;7.95;;;5.30;;
45970;SDS011;31681;48.982;8.394;2023-04-21T07:53:27;6.63;;;5.22;;
45970;SDS011;31681;48.982;8.394;2023-04-21T07:55:52;8.90;;;5.43;;
45970;SDS011;31681;48.982;8.394;2023-04-21T07:58:18;7.00;;;5.30;;
45970;SDS011;31681;48.982;8.394;2023-04-21T08:00:44;6.85;;;4.82;;
45970;SDS011;31681;48.982;8.394;2023-04-21T08:03:09;8.95;;;5.47;;
45970;SDS011;31681;48.982;8.394;2023-04-21T08:05:34;6.47;;;5.10;;
45970;SDS011;31681;48.982;8.394;2023-04-21T08:08:00;7.45;;;4.55;;
45970;SDS011;31681;48.982;8.394;2023-04-21T08:10:25;7.45;;;5.03;;
45970;SDS011;31681;48.982;8.394;2023-04-21T08:12:51;4.97;;;3.75;;
45970;SDS011;31681;48.982;8.394;2023-04-21T08:15:16;4.18;;;3.42;;
45970;SDS011;31681;48.982;8.394;2023-04-21T08:17:42;5.55;;;3.45;;
45970;SDS011;31681;48.982;8.394;2023-04-21T08:20:07;4.40;;;3.63;;
45970;SDS011;31681;48.982;8.394;2023-04-21T08:22:33;6.60;;;4.72;;
45970;SDS011;31681;48.982;8.394;2023-04-21T08:25:00;6.28;;;4.13;;
45970;SDS011;31681;48.982;8.394;2023-04-21T08:27:26;5.30;;;4.00;;
45970;SDS011;31681;48.982;8.394;2023-04-21T08:29:51;7.40;;;4.20;;
45970;SDS011;31681;48.982;8.394;2023-04-21T08:32:16;5.82;;;3.97;;
45970;SDS011;31681;48.982;8.394;2023-04-21T08:34:47;6.05;;;4.40;;
45970;SDS011;31681;48.982;8.394;2023-04-21T08:37:13;5.97;;;4.03;;
45970;SDS011;31681;48.982;8.394;2023-04-21T08:39:38;7.45;;;4.50;;
45970;SDS011;31681;48.982;8.394;2023-04-21T08:42:04;6.50;;;5.10;;
45970;SDS011;31681;48.982;8.394;2023-04-21T08:44:30;9.32;;;5.38;;
45970;SDS011;31681;48.982;8.394;2023-04-21T08:46:55;7.72;;;4.88;;
45970;SDS011;31681;48.982;8.394;2023-04-21T08:49:23;5.53;;;4.57;;
45970;SDS011;31681;48.982;8.394;2023-04-21T08:51:50;5.65;;;4.60;;
45970;SDS011;31681;48.982;8.394;2023-04-21T08:54:15;5.72;;;3.97;;
45970;SDS011;31681;48.982;8.394;2023-04-21T08:56:40;5.15;;;4.18;;
45970;SDS011;31681;48.982;8.394;2023-04-21T08:59:06;7.72;;;4.90;;
45970;SDS011;31681;48.982;8.394;2023-04-21T09:01:31;5.75;;;4.60;;
45970;SDS011;31681;48.982;8.394;2023-04-21T09:04:14;4.57;;;3.60;;
45970;SDS011;31681;48.982;8.394;2023-04-21T09:06:39;5.63;;;3.88;;
45970;SDS011;31681;48.982;8.394;2023-04-21T09:09:07;4.95;;;3.92;;
45970;SDS011;31681;48.982;8.394;2023-04-21T09:11:32;5.85;;;4.13;;
45970;SDS011;31681;48.982;8.394;2023-04-21T09:13:58;8.20;;;4.20;;
45970;SDS011;31681;48.982;8.394;2023-04-21T09:16:24;6.13;;;4.45;;
45970;SDS011;31681;48.982;8.394;2023-04-21T09:18:53;5.85;;;4.13;;
45970;SDS011;31681;48.982;8.394;2023-04-21T09:21:18;11.70;;;4.80;;
45970;SDS011;31681;48.982;8.394;2023-04-21T09:23:45;5.43;;;4.30;;
45970;SDS011;31681;48.982;8.394;2023-04-21T09:26:11;5.15;;;4.03;;
45970;SDS011;31681;48.982;8.394;2023-04-21T09:28:39;4.55;;;3.70;;
45970;SDS011;31681;48.982;8.394;2023-04-21T09:31:04;6.78;;;4.60;;
45970;SDS011;31681;48.982;8.394;2023-04-21T09:33:36;7.53;;;4.90;;
45970;SDS011;31681;48.982;8.394;2023-04-21T09:36:02;6.90;;;4.20;;
45970;SDS011;31681;48.982;8.394;2023-04-21T09:38:29;4.60;;;4.07;;
45970;SDS011;31681;48.982;8.394;2023-04-21T09:40:57;6.43;;;3.92;;
45970;SDS011;31681;48.982;8.394;2023-04-21T09:43:23;6.20;;;3.97;;
45970;SDS011;31681;48.982;8.394;2023-04-21T09:45:48;5.82;;;3.58;;
45970;SDS011;31681;48.982;8.394;2023-04-21T09:48:15;4.13;;;3.25;;
45970;SDS011;31681;48.982;8.394;2023-04-21T09:50:41;6.20;;;3.53;;
45970;SDS011;31681;48.982;8.394;2023-04-21T09:53:07;4.95;;;3.78;;
45970;SDS011;31681;48.982;8.394;2023-04-21T09:55:35;3.95;;;3.20;;
45970;SDS011;31681;48.982;8.394;2023-04-21T09:58:01;4.32;;;3.22;;
45970;SDS011;31681;48.982;8.394;2023-04-21T10:00:27;4.25;;;3.10;;
45970;SDS011;31681;48.982;8.394;2023-04-21T10:02:53;4.38;;;3.95;;
45970;SDS011;31681;48.982;8.394;2023-04-21T10:05:18;3.88;;;2.53;;
45970;SDS011;31681;48.982;8.394;2023-04-21T10:07:44;2.97;;;2.67;;
45970;SDS011;31681;48.982;8.394;2023-04-21T10:10:22;3.38;;;2.80;;
45970;SDS011;31681;48.982;8.394;2023-04-21T10:12:47;3.55;;;2.42;;
45970;SDS011;31681;48.982;8.394;2023-04-21T10:15:32;2.63;;;2.42;;
45970;SDS011;31681;48.982;8.394;2023-04-21T10:18:11;3.72;;;2.17;;
45970;SDS011;31681;48.982;8.394;2023-04-21T10:23:41;3.22;;;2.08;;
45970;SDS011;31681;48.982;8.394;2023-04-21T10:28:42;2.03;;;1.83;;
45970;SDS011;31681;48.982;8.394;2023-04-21T10:31:21;2.72;;;1.95;;
45970;SDS011;31681;48.982;8.394;2023-04-21T10:37:17;4.18;;;1.88;;
45970;SDS011;31681;48.982;8.394;2023-04-21T10:39:27;2.58;;;1.77;;
45970;SDS011;31681;48.982;8.394;2023-04-21T10:41:57;2.08;;;1.58;;
45970;SDS011;31681;48.982;8.394;2023-04-21T10:44:23;2.53;;;1.83;;
45970;SDS011;31681;48.982;8.394;2023-04-21T10:46:52;3.97;;;2.03;;
45970;SDS011;31681;48.982;8.394;2023-04-21T10:49:22;1.88;;;1.55;;
45970;SDS011;31681;48.982;8.394;2023-04-21T10:54:23;2.75;;;1.98;;
45970;SDS011;31681;48.982;8.394;2023-04-21T10:56:50;2.20;;;1.77;;
45970;SDS011;31681;48.982;8.394;2023-04-21T10:59:15;3.00;;;2.45;;
45970;SDS011;31681;48.982;8.394;2023-04-21T11:01:42;2.17;;;1.65;;
45970;SDS011;31681;48.982;8.394;2023-04-21T11:04:12;1.75;;;1.50;;
45970;SDS011;31681;48.982;8.394;2023-04-21T11:06:38;1.35;;;1.25;;
45970;SDS011;31681;48.982;8.394;2023-04-21T11:09:03;6.38;;;2.15;;
45970;SDS011;31681;48.982;8.394;2023-04-21T11:11:29;3.70;;;1.90;;
45970;SDS011;31681;48.982;8.394;2023-04-21T11:13:54;5.68;;;1.90;;
45970;SDS011;31681;48.982;8.394;2023-04-21T11:16:19;3.40;;;2.20;;
45970;SDS011;31681;48.982;8.394;2023-04-21T11:18:45;2.78;;;2.17;;
45970;SDS011;31681;48.982;8.394;2023-04-21T11:21:12;3.20;;;2.60;;
45970;SDS011;31681;48.982;8.394;2023-04-21T11:23:40;3.15;;;2.42;;
45970;SDS011;31681;48.982;8.394;2023-04-21T11:26:06;3.58;;;2.30;;
45970;SDS011;31681;48.982;8.394;2023-04-21T11:28:31;4.65;;;2.78;;
45970;SDS011;31681;48.982;8.394;2023-04-21T11:30:57;4.00;;;2.97;;
45970;SDS011;31681;48.982;8.394;2023-04-21T11:33:23;3.70;;;2.70;;
45970;SDS011;31681;48.982;8.394;2023-04-21T11:35:48;3.78;;;2.67;;
45970;SDS011;31681;48.982;8.394;2023-04-21T11:38:15;4.10;;;2.92;;
45970;SDS011;31681;48.982;8.394;2023-04-21T11:40:49;3.67;;;2.65;;
45970;SDS011;31681;48.982;8.394;2023-04-21T11:43:15;2.75;;;2.45;;
45970;SDS011;31681;48.982;8.394;2023-04-21T11:45:40;3.60;;;2.53;;
45970;SDS011;31681;48.982;8.394;2023-04-21T11:48:15;4.30;;;2.70;;
45970;SDS011;31681;48.982;8.394;2023-04-21T11:50:45;3.60;;;2.50;;
45970;SDS011;31681;48.982;8.394;2023-04-21T11:53:12;3.97;;;2.78;;
45970;SDS011;31681;48.982;8.394;2023-04-21T11:55:40;3.50;;;2.53;;
45970;SDS011;31681;48.982;8.394;2023-04-21T11:58:06;2.95;;;2.30;;
45970;SDS011;31681;48.982;8.394;2023-04-21T12:00:31;2.42;;;2.00;;
45970;SDS011;31681;48.982;8.394;2023-04-21T12:02:57;3.70;;;2.70;;
45970;SDS011;31681;48.982;8.394;2023-04-21T12:05:22;4.35;;;2.72;;
45970;SDS011;31681;48.982;8.394;2023-04-21T12:07:48;3.85;;;2.83;;
45970;SDS011;31681;48.982;8.394;2023-04-21T12:10:17;3.60;;;2.90;;
45970;SDS011;31681;48.982;8.394;2023-04-21T12:12:43;4.03;;;2.92;;
45970;SDS011;31681;48.982;8.394;2023-04-21T12:15:09;4.45;;;3.13;;
45970;SDS011;31681;48.982;8.394;2023-04-21T12:17:38;3.17;;;2.58;;
45970;SDS011;31681;48.982;8.394;2023-04-21T12:20:04;4.32;;;2.58;;
45970;SDS011;31681;48.982;8.394;2023-04-21T12:22:30;3.05;;;2.75;;
45970;SDS011;31681;48.982;8.394;2023-04-21T12:24:56;4.10;;;2.80;;
45970;SDS011;31681;48.982;8.394;2023-04-21T12:27:21;3.70;;;3.10;;
45970;SDS011;31681;48.982;8.394;2023-04-21T12:29:47;3.17;;;2.40;;
45970;SDS011;31681;48.982;8.394;2023-04-21T12:32:13;3.30;;;2.80;;
45970;SDS011;31681;48.982;8.394;2023-04-21T12:34:39;2.83;;;2.28;;
45970;SDS011;31681;48.982;8.394;2023-04-21T12:37:06;2.80;;;2.50;;
45970;SDS011;31681;48.982;8.394;2023-04-21T12:39:32;2.53;;;2.20;;
45970;SDS011;31681;48.982;8.394;2023-04-21T12:41:57;4.15;;;2.50;;
45970;SDS011;31681;48.982;8.394;2023-04-21T12:44:23;5.85;;;3.05;;
45970;SDS011;31681;48.982;8.394;2023-04-21T12:46:48;4.13;;;2.83;;
45970;SDS011;31681;48.982;8.394;2023-04-21T12:49:14;3.25;;;2.95;;
45970;SDS011;31681;48.982;8.394;2023-04-21T12:51:40;5.95;;;3.80;;
45970;SDS011;31681;48.982;8.394;2023-04-21T12:54:05;5.47;;;3.50;;
45970;SDS011;31681;48.982;8.394;2023-04-21T12:56:31;5.50;;;4.25;;
45970;SDS011;31681;48.982;8.394;2023-04-21T12:58:56;3.88;;;3.22;;
45970;SDS011;31681;48.982;8.394;2023-04-21T13:01:23;5.18;;;2.78;;
45970;SDS011;31681;48.982;8.394;2023-04-21T13:03:48;3.60;;;3.10;;
45970;SDS011;31681;48.982;8.394;2023-04-21T13:06:13;3.30;;;3.00;;
45970;SDS011;31681;48.982;8.394;2023-04-21T13:08:39;5.47;;;4.10;;
45970;SDS011;31681;48.982;8.394;2023-04-21T13:11:04;4.80;;;3.72;;
45970;SDS011;31681;48.982;8.394;2023-04-21T13:13:30;7.53;;;3.72;;
45970;SDS011;31681;48.982;8.394;2023-04-21T13:15:56;4.88;;;3.92;;
45970;SDS011;31681;48.982;8.394;2023-04-21T13:18:21;4.13;;;3.45;;
45970;SDS011;31681;48.982;8.394;2023-04-21T13:20:46;6.95;;;4.30;;
45970;SDS011;31681;48.982;8.394;2023-04-21T13:23:12;6.57;;;5.25;;
45970;SDS011;31681;48.982;8.394;2023-04-21T13:25:39;6.03;;;4.05;;
45970;SDS011;31681;48.982;8.394;2023-04-21T13:28:05;9.50;;;5.05;;
45970;SDS011;31681;48.982;8.394;2023-04-21T13:30:31;6.25;;;4.78;;
45970;SDS011;31681;48.982;8.394;2023-04-21T13:32:57;4.50;;;3.88;;
45970;SDS011;31681;48.982;8.394;2023-04-21T13:35:22;5.90;;;3.97;;
45970;SDS011;31681;48.982;8.394;2023-04-21T13:37:47;7.15;;;4.15;;
45970;SDS011;31681;48.982;8.394;2023-04-21T13:40:14;8.38;;;4.63;;
45970;SDS011;31681;48.982;8.394;2023-04-21T13:42:39;8.38;;;5.35;;
45970;SDS011;31681;48.982;8.394;2023-04-21T13:45:05;5.97;;;4.70;;
45970;SDS011;31681;48.982;8.394;2023-04-21T13:47:30;9.88;;;4.82;;
45970;SDS011;31681;48.982;8.394;2023-04-21T13:49:56;7.95;;;4.60;;
45970;SDS011;31681;48.982;8.394;2023-04-21T13:52:21;6.53;;;4.97;;
45970;SDS011;31681;48.982;8.394;2023-04-21T13:54:47;5.97;;;4.78;;
45970;SDS011;31681;48.982;8.394;2023-04-21T13:57:12;5.55;;;4.28;;
45970;SDS011;31681;48.982;8.394;2023-04-21T13:59:38;4.10;;;3.63;;
45970;SDS011;31681;48.982;8.394;2023-04-21T14:02:03;4.47;;;3.63;;
45970;SDS011;31681;48.982;8.394;2023-04-21T14:04:28;7.03;;;4.15;;
45970;SDS011;31681;48.982;8.394;2023-04-21T14:06:54;5.22;;;4.00;;
45970;SDS011;31681;48.982;8.394;2023-04-21T14:09:19;5.13;;;3.80;;
45970;SDS011;31681;48.982;8.394;2023-04-21T14:11:45;5.43;;;4.40;;
45970;SDS011;31681;48.982;8.394;2023-04-21T14:14:10;5.65;;;4.25;;
45970;SDS011;31681;48.982;8.394;2023-04-21T14:16:36;7.18;;;4.70;;
45970;SDS011;31681;48.982;8.394;2023-04-21T14:19:02;4.88;;;3.88;;
45970;SDS011;31681;48.982;8.394;2023-04-21T14:21:27;5.45;;;4.07;;
45970;SDS011;31681;48.982;8.394;2023-04-21T14:23:52;5.68;;;3.83;;
45970;SDS011;31681;48.982;8.394;2023-04-21T14:26:18;6.60;;;3.67;;
45970;SDS011;31681;48.982;8.394;2023-04-21T14:28:43;7.70;;;3.97;;
45970;SDS011;31681;48.982;8.394;2023-04-21T14:31:08;4.47;;;3.30;;
45970;SDS011;31681;48.982;8.394;2023-04-21T14:33:34;5.45;;;3.63;;
45970;SDS011;31681;48.982;8.394;2023-04-21T14:35:59;4.65;;;3.78;;
45970;SDS011;31681;48.982;8.394;2023-04-21T14:38:25;4.65;;;3.63;;